Main page
Satellite images 15-day forecastsClimateMarine weather Cyclones Lightning AirportsFAQ Newsletter About
Weather : Europe Africa North America South America Asia Australia-Oceania Others
Languages Contact

Brussels, Belgium

National

latitude: 50-54N, longitude: 004-32E, elevation: 55 m


METAR: EBBR 230150Z 26004KT CAVOK 11/09 Q1022 NOSIG
TAF: EBBR 222300Z 2300/2406 24004KT CAVOK TEMPO 2302/2307 3000 BR

Time: 04:17 (02:17 UTC)

Current weather observation

The report was made 27 minutes ago, at 01:50 UTC  
Wind 04 kt from the West
Temperature 11°C
Humidity 87%
Pressure 1022 hPa
Visibility 10 km or more
no clouds below 1500 m and no cumulonimbus

Change units

Forecast

The report was made 03 hours and 17 minutes ago, at 23:00 UTC  
Forecast valid from 23 at 00 UTC to 24 at 06 UTC
Wind 04 kt from the West/Southwest
Visibility 10 km or more
no clouds below 1500 m and no cumulonimbus
Temporary
from 23 at 02 UTC to 23 at 07 UTC
Visibility 3000 m
mist
The information on this site is subject to a disclaimer
Weather : Europe Africa North America South America Asia Australia-Oceania Others
Satellite images 15-day forecastsClimateMarine weather Cyclones Lightning AirportsFAQ Languages Contact Newsletter About